sensor_id;sensor_type;location;lat;lon;timestamp;temperature;humidity
6098;DHT22;3077;50.922;6.584;2023-04-07T00:01:42;9.20;99.90
6098;DHT22;3077;50.922;6.584;2023-04-07T00:04:07;9.20;99.90
6098;DHT22;3077;50.922;6.584;2023-04-07T00:06:33;9.30;99.90
6098;DHT22;3077;50.922;6.584;2023-04-07T00:08:58;9.20;99.90
6098;DHT22;3077;50.922;6.584;2023-04-07T00:11:24;9.10;99.90
6098;DHT22;3077;50.922;6.584;2023-04-07T00:13:50;9.10;99.90
6098;DHT22;3077;50.922;6.584;2023-04-07T00:16:16;9.10;99.90
6098;DHT22;3077;50.922;6.584;2023-04-07T00:18:41;9.10;99.90
6098;DHT22;3077;50.922;6.584;2023-04-07T00:21:07;9.30;99.90
6098;DHT22;3077;50.922;6.584;2023-04-07T00:23:33;9.10;99.90
6098;DHT22;3077;50.922;6.584;2023-04-07T00:25:58;9.00;99.90
6098;DHT22;3077;50.922;6.584;2023-04-07T00:28:24;9.20;99.90
6098;DHT22;3077;50.922;6.584;2023-04-07T00:30:50;9.10;99.90
6098;DHT22;3077;50.922;6.584;2023-04-07T00:33:15;9.10;99.90
6098;DHT22;3077;50.922;6.584;2023-04-07T00:35:41;9.10;99.90
6098;DHT22;3077;50.922;6.584;2023-04-07T00:38:06;9.20;99.90
6098;DHT22;3077;50.922;6.584;2023-04-07T00:40:32;9.10;99.90
6098;DHT22;3077;50.922;6.584;2023-04-07T00:42:57;9.00;99.90
6098;DHT22;3077;50.922;6.584;2023-04-07T00:45:23;9.10;99.90
6098;DHT22;3077;50.922;6.584;2023-04-07T00:47:49;9.10;99.90
6098;DHT22;3077;50.922;6.584;2023-04-07T00:50:14;9.10;99.90
6098;DHT22;3077;50.922;6.584;2023-04-07T00:52:40;9.20;99.90
6098;DHT22;3077;50.922;6.584;2023-04-07T00:55:06;9.10;99.90
6098;DHT22;3077;50.922;6.584;2023-04-07T00:57:32;9.10;99.90
6098;DHT22;3077;50.922;6.584;2023-04-07T00:59:57;9.10;99.90
6098;DHT22;3077;50.922;6.584;2023-04-07T01:05:01;9.00;99.90
6098;DHT22;3077;50.922;6.584;2023-04-07T01:07:47;9.00;99.90
6098;DHT22;3077;50.922;6.584;2023-04-07T01:10:20;9.00;99.90
6098;DHT22;3077;50.922;6.584;2023-04-07T01:13:05;9.00;99.90
6098;DHT22;3077;50.922;6.584;2023-04-07T01:15:34;8.90;99.90
6098;DHT22;3077;50.922;6.584;2023-04-07T01:18:14;9.00;99.90
6098;DHT22;3077;50.922;6.584;2023-04-07T01:20:42;9.00;99.90
6098;DHT22;3077;50.922;6.584;2023-04-07T01:23:15;9.00;99.90
6098;DHT22;3077;50.922;6.584;2023-04-07T01:26:17;9.00;99.90
6098;DHT22;3077;50.922;6.584;2023-04-07T01:28:56;9.00;99.90
6098;DHT22;3077;50.922;6.584;2023-04-07T01:31:27;9.00;99.90
6098;DHT22;3077;50.922;6.584;2023-04-07T01:33:54;8.90;99.90
6098;DHT22;3077;50.922;6.584;2023-04-07T01:36:21;9.00;99.90
6098;DHT22;3077;50.922;6.584;2023-04-07T01:38:48;9.20;99.90
6098;DHT22;3077;50.922;6.584;2023-04-07T01:41:16;9.00;99.90
6098;DHT22;3077;50.922;6.584;2023-04-07T01:43:43;9.00;99.90
6098;DHT22;3077;50.922;6.584;2023-04-07T01:46:09;9.00;99.90
6098;DHT22;3077;50.922;6.584;2023-04-07T01:48:36;8.90;99.90
6098;DHT22;3077;50.922;6.584;2023-04-07T01:51:03;9.00;99.90
6098;DHT22;3077;50.922;6.584;2023-04-07T01:53:29;9.00;99.90
6098;DHT22;3077;50.922;6.584;2023-04-07T01:55:55;8.80;99.90
6098;DHT22;3077;50.922;6.584;2023-04-07T01:58:21;8.90;99.90
6098;DHT22;3077;50.922;6.584;2023-04-07T02:00:47;8.90;99.90
6098;DHT22;3077;50.922;6.584;2023-04-07T02:03:19;8.80;99.90
6098;DHT22;3077;50.922;6.584;2023-04-07T02:05:47;8.80;99.90
6098;DHT22;3077;50.922;6.584;2023-04-07T02:08:15;8.80;99.90
6098;DHT22;3077;50.922;6.584;2023-04-07T02:10:43;9.00;99.90
6098;DHT22;3077;50.922;6.584;2023-04-07T02:13:14;8.90;99.90
6098;DHT22;3077;50.922;6.584;2023-04-07T02:15:41;8.80;99.90
6098;DHT22;3077;50.922;6.584;2023-04-07T02:18:09;8.90;99.90
6098;DHT22;3077;50.922;6.584;2023-04-07T02:20:37;8.90;99.90
6098;DHT22;3077;50.922;6.584;2023-04-07T02:23:07;8.90;99.90
6098;DHT22;3077;50.922;6.584;2023-04-07T02:25:32;8.90;99.90
6098;DHT22;3077;50.922;6.584;2023-04-07T02:27:59;8.90;99.90
6098;DHT22;3077;50.922;6.584;2023-04-07T02:30:25;9.00;99.90
6098;DHT22;3077;50.922;6.584;2023-04-07T02:32:51;9.00;99.90
6098;DHT22;3077;50.922;6.584;2023-04-07T02:35:17;9.10;99.90
6098;DHT22;3077;50.922;6.584;2023-04-07T02:37:43;9.00;99.90
6098;DHT22;3077;50.922;6.584;2023-04-07T02:40:09;9.10;99.90
6098;DHT22;3077;50.922;6.584;2023-04-07T02:42:35;9.00;99.90
6098;DHT22;3077;50.922;6.584;2023-04-07T02:45:02;9.00;99.90
6098;DHT22;3077;50.922;6.584;2023-04-07T02:47:28;9.10;99.90
6098;DHT22;3077;50.922;6.584;2023-04-07T02:49:53;9.20;99.90
6098;DHT22;3077;50.922;6.584;2023-04-07T02:52:19;9.00;99.90
6098;DHT22;3077;50.922;6.584;2023-04-07T02:54:44;9.00;99.90
6098;DHT22;3077;50.922;6.584;2023-04-07T02:57:10;9.00;99.90
6098;DHT22;3077;50.922;6.584;2023-04-07T02:59:36;8.90;99.90
6098;DHT22;3077;50.922;6.584;2023-04-07T03:02:01;8.90;99.90
6098;DHT22;3077;50.922;6.584;2023-04-07T03:04:27;8.90;99.90
6098;DHT22;3077;50.922;6.584;2023-04-07T03:06:52;8.90;99.90
6098;DHT22;3077;50.922;6.584;2023-04-07T03:09:18;8.70;99.90
6098;DHT22;3077;50.922;6.584;2023-04-07T03:11:44;8.80;99.90
6098;DHT22;3077;50.922;6.584;2023-04-07T03:14:09;8.90;99.90
6098;DHT22;3077;50.922;6.584;2023-04-07T03:16:35;8.80;99.90
6098;DHT22;3077;50.922;6.584;2023-04-07T03:19:00;8.80;99.90
6098;DHT22;3077;50.922;6.584;2023-04-07T03:21:26;8.80;99.90
6098;DHT22;3077;50.922;6.584;2023-04-07T03:23:53;8.70;99.90
6098;DHT22;3077;50.922;6.584;2023-04-07T03:26:19;8.70;99.90
6098;DHT22;3077;50.922;6.584;2023-04-07T03:28:44;8.80;99.90
6098;DHT22;3077;50.922;6.584;2023-04-07T03:31:10;8.70;99.90
6098;DHT22;3077;50.922;6.584;2023-04-07T03:33:35;8.70;99.90
6098;DHT22;3077;50.922;6.584;2023-04-07T03:36:01;9.00;99.90
6098;DHT22;3077;50.922;6.584;2023-04-07T03:38:27;8.70;99.90
6098;DHT22;3077;50.922;6.584;2023-04-07T03:40:53;8.70;99.90
6098;DHT22;3077;50.922;6.584;2023-04-07T03:43:18;8.70;99.90
6098;DHT22;3077;50.922;6.584;2023-04-07T03:45:44;8.70;99.90
6098;DHT22;3077;50.922;6.584;2023-04-07T03:48:11;8.90;99.90
6098;DHT22;3077;50.922;6.584;2023-04-07T03:50:38;8.70;99.90
6098;DHT22;3077;50.922;6.584;2023-04-07T03:53:04;8.60;99.90
6098;DHT22;3077;50.922;6.584;2023-04-07T03:55:30;8.60;99.90
6098;DHT22;3077;50.922;6.584;2023-04-07T03:57:56;8.50;99.90
6098;DHT22;3077;50.922;6.584;2023-04-07T04:00:22;8.70;99.90
6098;DHT22;3077;50.922;6.584;2023-04-07T04:02:47;8.70;99.90
6098;DHT22;3077;50.922;6.584;2023-04-07T04:05:13;8.60;99.90
6098;DHT22;3077;50.922;6.584;2023-04-07T04:07:38;8.60;99.90
6098;DHT22;3077;50.922;6.584;2023-04-07T04:10:05;8.60;99.90
6098;DHT22;3077;50.922;6.584;2023-04-07T04:12:30;8.60;99.90
6098;DHT22;3077;50.922;6.584;2023-04-07T04:14:56;8.50;99.90
6098;DHT22;3077;50.922;6.584;2023-04-07T04:17:22;8.90;99.90
6098;DHT22;3077;50.922;6.584;2023-04-07T04:19:47;8.60;99.90
6098;DHT22;3077;50.922;6.584;2023-04-07T04:22:13;8.60;99.90
6098;DHT22;3077;50.922;6.584;2023-04-07T04:24:38;8.80;99.90
6098;DHT22;3077;50.922;6.584;2023-04-07T04:27:06;8.50;99.90
6098;DHT22;3077;50.922;6.584;2023-04-07T04:29:32;8.50;99.90
6098;DHT22;3077;50.922;6.584;2023-04-07T04:31:58;8.50;99.90
6098;DHT22;3077;50.922;6.584;2023-04-07T04:34:23;8.40;99.90
6098;DHT22;3077;50.922;6.584;2023-04-07T04:36:49;8.40;99.90
6098;DHT22;3077;50.922;6.584;2023-04-07T04:39:14;8.50;99.90
6098;DHT22;3077;50.922;6.584;2023-04-07T04:41:40;8.40;99.90
6098;DHT22;3077;50.922;6.584;2023-04-07T04:44:06;8.50;99.90
6098;DHT22;3077;50.922;6.584;2023-04-07T04:46:32;8.40;99.90
6098;DHT22;3077;50.922;6.584;2023-04-07T04:48:57;8.40;99.90
6098;DHT22;3077;50.922;6.584;2023-04-07T04:51:23;8.40;99.90
6098;DHT22;3077;50.922;6.584;2023-04-07T04:53:49;8.30;99.90
6098;DHT22;3077;50.922;6.584;2023-04-07T04:56:14;8.30;99.90
6098;DHT22;3077;50.922;6.584;2023-04-07T04:58:40;8.30;99.90
6098;DHT22;3077;50.922;6.584;2023-04-07T05:01:13;8.30;99.90
6098;DHT22;3077;50.922;6.584;2023-04-07T05:03:39;8.30;99.90
6098;DHT22;3077;50.922;6.584;2023-04-07T05:06:05;8.30;99.90
6098;DHT22;3077;50.922;6.584;2023-04-07T05:08:31;8.30;99.90
6098;DHT22;3077;50.922;6.584;2023-04-07T05:10:56;8.30;99.90
6098;DHT22;3077;50.922;6.584;2023-04-07T05:13:22;8.30;99.90
6098;DHT22;3077;50.922;6.584;2023-04-07T05:15:48;8.40;99.90
6098;DHT22;3077;50.922;6.584;2023-04-07T05:18:13;8.40;99.90
6098;DHT22;3077;50.922;6.584;2023-04-07T05:20:39;8.40;99.90
6098;DHT22;3077;50.922;6.584;2023-04-07T05:23:04;8.40;99.90
6098;DHT22;3077;50.922;6.584;2023-04-07T05:25:31;8.40;99.90
6098;DHT22;3077;50.922;6.584;2023-04-07T05:27:57;8.50;99.90
6098;DHT22;3077;50.922;6.584;2023-04-07T05:30:23;8.40;99.90
6098;DHT22;3077;50.922;6.584;2023-04-07T05:32:49;8.40;99.90
6098;DHT22;3077;50.922;6.584;2023-04-07T05:35:15;8.40;99.90
6098;DHT22;3077;50.922;6.584;2023-04-07T05:37:40;8.50;99.90
6098;DHT22;3077;50.922;6.584;2023-04-07T05:40:06;8.40;99.90
6098;DHT22;3077;50.922;6.584;2023-04-07T05:42:32;8.40;99.90
6098;DHT22;3077;50.922;6.584;2023-04-07T05:44:58;8.40;99.90
6098;DHT22;3077;50.922;6.584;2023-04-07T05:47:23;8.20;99.90
6098;DHT22;3077;50.922;6.584;2023-04-07T05:49:49;8.30;99.90
6098;DHT22;3077;50.922;6.584;2023-04-07T05:52:14;8.40;99.90
6098;DHT22;3077;50.922;6.584;2023-04-07T05:54:40;8.50;99.90
6098;DHT22;3077;50.922;6.584;2023-04-07T05:57:06;8.40;99.90
6098;DHT22;3077;50.922;6.584;2023-04-07T05:59:35;8.40;99.90
6098;DHT22;3077;50.922;6.584;2023-04-07T06:02:02;8.20;99.90
6098;DHT22;3077;50.922;6.584;2023-04-07T06:04:28;8.20;99.90
6098;DHT22;3077;50.922;6.584;2023-04-07T06:06:53;8.20;99.90
6098;DHT22;3077;50.922;6.584;2023-04-07T06:09:22;8.10;99.90
6098;DHT22;3077;50.922;6.584;2023-04-07T06:11:48;8.10;99.90
6098;DHT22;3077;50.922;6.584;2023-04-07T06:14:13;8.10;99.90
6098;DHT22;3077;50.922;6.584;2023-04-07T06:16:39;8.10;99.90
6098;DHT22;3077;50.922;6.584;2023-04-07T06:19:05;8.10;99.90
6098;DHT22;3077;50.922;6.584;2023-04-07T06:21:32;8.10;99.90
6098;DHT22;3077;50.922;6.584;2023-04-07T06:23:58;8.10;99.90
6098;DHT22;3077;50.922;6.584;2023-04-07T06:26:25;8.10;99.90
6098;DHT22;3077;50.922;6.584;2023-04-07T06:28:51;8.20;99.90
6098;DHT22;3077;50.922;6.584;2023-04-07T06:31:17;8.10;99.90
6098;DHT22;3077;50.922;6.584;2023-04-07T06:33:43;8.30;99.90
6098;DHT22;3077;50.922;6.584;2023-04-07T06:36:09;9.10;99.90
6098;DHT22;3077;50.922;6.584;2023-04-07T06:38:35;8.30;99.90
6098;DHT22;3077;50.922;6.584;2023-04-07T06:41:01;8.30;99.90
6098;DHT22;3077;50.922;6.584;2023-04-07T06:43:27;8.20;99.90
6098;DHT22;3077;50.922;6.584;2023-04-07T06:45:52;8.40;99.90
6098;DHT22;3077;50.922;6.584;2023-04-07T06:48:18;8.50;99.90
6098;DHT22;3077;50.922;6.584;2023-04-07T06:50:48;8.40;99.90
6098;DHT22;3077;50.922;6.584;2023-04-07T06:53:14;8.60;99.90
6098;DHT22;3077;50.922;6.584;2023-04-07T06:55:39;8.40;99.90
6098;DHT22;3077;50.922;6.584;2023-04-07T06:58:05;8.40;99.90
6098;DHT22;3077;50.922;6.584;2023-04-07T07:00:31;8.50;99.90
6098;DHT22;3077;50.922;6.584;2023-04-07T07:02:57;8.50;99.90
6098;DHT22;3077;50.922;6.584;2023-04-07T07:05:22;8.60;99.90
6098;DHT22;3077;50.922;6.584;2023-04-07T07:07:48;8.50;99.90
6098;DHT22;3077;50.922;6.584;2023-04-07T07:10:14;8.50;99.90
6098;DHT22;3077;50.922;6.584;2023-04-07T07:12:40;8.50;99.90
6098;DHT22;3077;50.922;6.584;2023-04-07T07:15:06;8.50;99.90
6098;DHT22;3077;50.922;6.584;2023-04-07T07:17:32;8.60;99.90
6098;DHT22;3077;50.922;6.584;2023-04-07T07:19:58;8.60;99.90
6098;DHT22;3077;50.922;6.584;2023-04-07T07:22:24;8.60;99.90
6098;DHT22;3077;50.922;6.584;2023-04-07T07:24:50;8.50;99.90
6098;DHT22;3077;50.922;6.584;2023-04-07T07:27:15;8.60;99.90
6098;DHT22;3077;50.922;6.584;2023-04-07T07:29:41;8.60;99.90
6098;DHT22;3077;50.922;6.584;2023-04-07T07:32:06;8.70;99.90
6098;DHT22;3077;50.922;6.584;2023-04-07T07:34:32;8.70;99.90
6098;DHT22;3077;50.922;6.584;2023-04-07T07:36:58;8.60;99.90
6098;DHT22;3077;50.922;6.584;2023-04-07T07:39:24;8.70;99.90
6098;DHT22;3077;50.922;6.584;2023-04-07T07:41:50;8.70;99.90
6098;DHT22;3077;50.922;6.584;2023-04-07T07:44:16;8.70;99.90
6098;DHT22;3077;50.922;6.584;2023-04-07T07:46:41;8.80;99.90
6098;DHT22;3077;50.922;6.584;2023-04-07T07:49:07;8.80;99.90
6098;DHT22;3077;50.922;6.584;2023-04-07T07:51:33;8.80;99.90
6098;DHT22;3077;50.922;6.584;2023-04-07T07:53:59;8.80;99.90
6098;DHT22;3077;50.922;6.584;2023-04-07T07:56:25;8.80;99.90
6098;DHT22;3077;50.922;6.584;2023-04-07T07:58:51;8.80;99.90
6098;DHT22;3077;50.922;6.584;2023-04-07T08:01:17;8.80;99.90
6098;DHT22;3077;50.922;6.584;2023-04-07T08:03:42;8.90;99.90
6098;DHT22;3077;50.922;6.584;2023-04-07T08:06:08;8.90;99.90
6098;DHT22;3077;50.922;6.584;2023-04-07T08:08:34;8.90;99.90
6098;DHT22;3077;50.922;6.584;2023-04-07T08:11:00;9.10;99.90
6098;DHT22;3077;50.922;6.584;2023-04-07T08:13:26;9.20;99.90
6098;DHT22;3077;50.922;6.584;2023-04-07T08:15:51;9.30;99.90
6098;DHT22;3077;50.922;6.584;2023-04-07T08:18:17;9.30;99.90
6098;DHT22;3077;50.922;6.584;2023-04-07T08:20:42;9.30;99.90
6098;DHT22;3077;50.922;6.584;2023-04-07T08:23:08;9.50;99.90
6098;DHT22;3077;50.922;6.584;2023-04-07T08:25:34;9.40;99.90
6098;DHT22;3077;50.922;6.584;2023-04-07T08:27:59;9.40;99.90
6098;DHT22;3077;50.922;6.584;2023-04-07T08:30:25;9.40;99.90
6098;DHT22;3077;50.922;6.584;2023-04-07T08:32:51;9.40;99.90
6098;DHT22;3077;50.922;6.584;2023-04-07T08:35:16;9.40;99.90
6098;DHT22;3077;50.922;6.584;2023-04-07T08:37:42;9.50;99.90
6098;DHT22;3077;50.922;6.584;2023-04-07T08:40:09;9.60;99.90
6098;DHT22;3077;50.922;6.584;2023-04-07T08:42:39;9.60;99.90
6098;DHT22;3077;50.922;6.584;2023-04-07T08:45:06;9.50;99.90
6098;DHT22;3077;50.922;6.584;2023-04-07T08:47:33;9.50;99.90
6098;DHT22;3077;50.922;6.584;2023-04-07T08:50:07;9.50;99.90
6098;DHT22;3077;50.922;6.584;2023-04-07T08:52:44;9.40;99.90
6098;DHT22;3077;50.922;6.584;2023-04-07T08:55:13;9.40;99.90
6098;DHT22;3077;50.922;6.584;2023-04-07T08:57:40;9.50;99.90
6098;DHT22;3077;50.922;6.584;2023-04-07T09:00:07;9.20;99.90
6098;DHT22;3077;50.922;6.584;2023-04-07T09:02:43;9.20;99.90
6098;DHT22;3077;50.922;6.584;2023-04-07T09:05:10;9.20;99.90
6098;DHT22;3077;50.922;6.584;2023-04-07T09:07:37;9.20;99.90
6098;DHT22;3077;50.922;6.584;2023-04-07T09:10:05;9.30;99.90
6098;DHT22;3077;50.922;6.584;2023-04-07T09:12:32;9.40;99.90
6098;DHT22;3077;50.922;6.584;2023-04-07T09:14:58;9.50;99.90
6098;DHT22;3077;50.922;6.584;2023-04-07T09:17:25;9.50;99.90
6098;DHT22;3077;50.922;6.584;2023-04-07T09:19:52;9.70;99.90
6098;DHT22;3077;50.922;6.584;2023-04-07T09:22:38;9.60;99.90
6098;DHT22;3077;50.922;6.584;2023-04-07T09:25:21;9.70;99.90
6098;DHT22;3077;50.922;6.584;2023-04-07T09:28:02;9.90;99.90
6098;DHT22;3077;50.922;6.584;2023-04-07T09:30:30;10.60;99.90
6098;DHT22;3077;50.922;6.584;2023-04-07T09:32:56;10.10;99.90
6098;DHT22;3077;50.922;6.584;2023-04-07T09:35:22;10.20;99.90
6098;DHT22;3077;50.922;6.584;2023-04-07T09:38:04;10.20;99.90
6098;DHT22;3077;50.922;6.584;2023-04-07T09:40:31;10.00;99.90
6098;DHT22;3077;50.922;6.584;2023-04-07T09:42:57;9.90;99.90
6098;DHT22;3077;50.922;6.584;2023-04-07T09:45:29;9.70;99.90
6098;DHT22;3077;50.922;6.584;2023-04-07T09:47:56;9.80;99.90
6098;DHT22;3077;50.922;6.584;2023-04-07T09:50:41;9.70;99.90
6098;DHT22;3077;50.922;6.584;2023-04-07T09:53:10;9.70;99.90
6098;DHT22;3077;50.922;6.584;2023-04-07T09:55:36;9.60;99.90
6098;DHT22;3077;50.922;6.584;2023-04-07T09:58:04;9.90;99.90
6098;DHT22;3077;50.922;6.584;2023-04-07T10:00:31;10.00;99.90
6098;DHT22;3077;50.922;6.584;2023-04-07T10:02:56;10.10;99.90
6098;DHT22;3077;50.922;6.584;2023-04-07T10:05:23;10.10;99.90
6098;DHT22;3077;50.922;6.584;2023-04-07T10:07:49;10.10;99.90
6098;DHT22;3077;50.922;6.584;2023-04-07T10:10:15;10.20;99.90
6098;DHT22;3077;50.922;6.584;2023-04-07T10:12:41;10.10;99.90
6098;DHT22;3077;50.922;6.584;2023-04-07T10:15:08;10.10;99.90
6098;DHT22;3077;50.922;6.584;2023-04-07T10:17:37;10.00;99.90
6098;DHT22;3077;50.922;6.584;2023-04-07T10:20:04;9.90;99.90
6098;DHT22;3077;50.922;6.584;2023-04-07T10:22:32;9.90;99.90
6098;DHT22;3077;50.922;6.584;2023-04-07T10:25:06;9.80;99.90
6098;DHT22;3077;50.922;6.584;2023-04-07T10:27:39;9.60;99.90
6098;DHT22;3077;50.922;6.584;2023-04-07T10:30:13;9.70;99.90
6098;DHT22;3077;50.922;6.584;2023-04-07T10:32:47;9.70;99.90
6098;DHT22;3077;50.922;6.584;2023-04-07T10:35:13;9.90;99.90
6098;DHT22;3077;50.922;6.584;2023-04-07T10:37:39;10.00;99.90
6098;DHT22;3077;50.922;6.584;2023-04-07T10:42:51;10.30;99.90
6098;DHT22;3077;50.922;6.584;2023-04-07T10:48:12;10.30;99.90
6098;DHT22;3077;50.922;6.584;2023-04-07T10:50:40;10.20;99.90
6098;DHT22;3077;50.922;6.584;2023-04-07T10:53:12;10.00;99.90
6098;DHT22;3077;50.922;6.584;2023-04-07T10:55:39;9.90;99.90
6098;DHT22;3077;50.922;6.584;2023-04-07T10:58:14;9.90;99.90
6098;DHT22;3077;50.922;6.584;2023-04-07T11:03:32;9.90;99.90
6098;DHT22;3077;50.922;6.584;2023-04-07T11:06:06;10.00;99.90
6098;DHT22;3077;50.922;6.584;2023-04-07T11:08:42;10.10;99.90
6098;DHT22;3077;50.922;6.584;2023-04-07T11:11:09;10.00;99.90
6098;DHT22;3077;50.922;6.584;2023-04-07T11:13:42;10.10;99.90
6098;DHT22;3077;50.922;6.584;2023-04-07T11:16:08;10.10;99.90
6098;DHT22;3077;50.922;6.584;2023-04-07T11:18:35;10.00;99.90
6098;DHT22;3077;50.922;6.584;2023-04-07T11:21:01;10.20;99.90
6098;DHT22;3077;50.922;6.584;2023-04-07T11:23:28;10.10;99.90
6098;DHT22;3077;50.922;6.584;2023-04-07T11:26:00;10.00;99.90
6098;DHT22;3077;50.922;6.584;2023-04-07T11:28:26;10.00;99.90
6098;DHT22;3077;50.922;6.584;2023-04-07T11:30:53;10.10;99.90
6098;DHT22;3077;50.922;6.584;2023-04-07T11:33:21;9.90;99.90
6098;DHT22;3077;50.922;6.584;2023-04-07T11:35:57;10.00;99.90
6098;DHT22;3077;50.922;6.584;2023-04-07T11:38:26;9.80;99.90
6098;DHT22;3077;50.922;6.584;2023-04-07T11:40:53;9.90;99.90
6098;DHT22;3077;50.922;6.584;2023-04-07T11:43:24;10.00;99.90
6098;DHT22;3077;50.922;6.584;2023-04-07T11:46:10;10.10;99.90
6098;DHT22;3077;50.922;6.584;2023-04-07T11:48:37;10.00;99.90
6098;DHT22;3077;50.922;6.584;2023-04-07T11:51:04;10.10;99.90
6098;DHT22;3077;50.922;6.584;2023-04-07T11:53:34;10.00;99.90
6098;DHT22;3077;50.922;6.584;2023-04-07T11:56:06;10.20;99.90
6098;DHT22;3077;50.922;6.584;2023-04-07T11:58:37;10.30;99.90
6098;DHT22;3077;50.922;6.584;2023-04-07T12:01:05;10.20;99.90
6098;DHT22;3077;50.922;6.584;2023-04-07T12:03:34;10.40;99.90
6098;DHT22;3077;50.922;6.584;2023-04-07T12:06:01;10.40;99.90
6098;DHT22;3077;50.922;6.584;2023-04-07T12:08:38;10.70;99.90
6098;DHT22;3077;50.922;6.584;2023-04-07T12:13:30;10.60;99.90
6098;DHT22;3077;50.922;6.584;2023-04-07T12:15:59;10.60;99.90
6098;DHT22;3077;50.922;6.584;2023-04-07T12:18:26;10.60;99.90
6098;DHT22;3077;50.922;6.584;2023-04-07T12:20:52;10.60;99.90
6098;DHT22;3077;50.922;6.584;2023-04-07T12:23:18;10.50;99.90
6098;DHT22;3077;50.922;6.584;2023-04-07T12:25:43;10.60;99.90
6098;DHT22;3077;50.922;6.584;2023-04-07T12:28:09;10.50;99.90
6098;DHT22;3077;50.922;6.584;2023-04-07T12:30:35;10.80;99.90
6098;DHT22;3077;50.922;6.584;2023-04-07T12:33:01;10.50;99.90
6098;DHT22;3077;50.922;6.584;2023-04-07T12:35:28;10.40;99.90
6098;DHT22;3077;50.922;6.584;2023-04-07T12:37:55;10.40;99.90
6098;DHT22;3077;50.922;6.584;2023-04-07T12:40:24;10.50;99.90
6098;DHT22;3077;50.922;6.584;2023-04-07T12:42:50;10.60;99.90
6098;DHT22;3077;50.922;6.584;2023-04-07T12:45:16;10.60;99.90
6098;DHT22;3077;50.922;6.584;2023-04-07T12:47:43;10.70;99.90
6098;DHT22;3077;50.922;6.584;2023-04-07T12:50:09;10.70;99.90
6098;DHT22;3077;50.922;6.584;2023-04-07T12:52:35;10.80;99.90
6098;DHT22;3077;50.922;6.584;2023-04-07T12:55:01;10.80;99.90
6098;DHT22;3077;50.922;6.584;2023-04-07T12:57:27;10.80;99.90
6098;DHT22;3077;50.922;6.584;2023-04-07T12:59:53;10.90;99.90
6098;DHT22;3077;50.922;6.584;2023-04-07T13:02:19;10.90;99.90
6098;DHT22;3077;50.922;6.584;2023-04-07T13:04:46;11.00;99.90
6098;DHT22;3077;50.922;6.584;2023-04-07T13:09:52;10.90;99.90
6098;DHT22;3077;50.922;6.584;2023-04-07T13:12:19;10.80;99.90
6098;DHT22;3077;50.922;6.584;2023-04-07T13:14:45;10.70;99.90
6098;DHT22;3077;50.922;6.584;2023-04-07T13:17:11;10.80;99.90
6098;DHT22;3077;50.922;6.584;2023-04-07T13:19:37;10.90;99.90
6098;DHT22;3077;50.922;6.584;2023-04-07T13:22:04;11.00;99.90
6098;DHT22;3077;50.922;6.584;2023-04-07T13:24:30;11.00;99.90
6098;DHT22;3077;50.922;6.584;2023-04-07T13:26:56;11.00;99.90
6098;DHT22;3077;50.922;6.584;2023-04-07T13:29:22;11.10;99.90
6098;DHT22;3077;50.922;6.584;2023-04-07T13:31:48;11.10;99.90
6098;DHT22;3077;50.922;6.584;2023-04-07T13:34:14;11.10;99.90
6098;DHT22;3077;50.922;6.584;2023-04-07T13:36:40;11.20;99.90
6098;DHT22;3077;50.922;6.584;2023-04-07T13:39:06;11.10;99.90
6098;DHT22;3077;50.922;6.584;2023-04-07T13:41:32;11.20;99.90
6098;DHT22;3077;50.922;6.584;2023-04-07T13:43:58;11.20;99.90
6098;DHT22;3077;50.922;6.584;2023-04-07T13:46:25;11.10;99.90
6098;DHT22;3077;50.922;6.584;2023-04-07T13:48:51;11.10;99.90
6098;DHT22;3077;50.922;6.584;2023-04-07T13:51:17;11.00;99.90
6098;DHT22;3077;50.922;6.584;2023-04-07T15:23:13;12.60;99.90
6098;DHT22;3077;50.922;6.584;2023-04-07T15:25:40;12.60;99.90
6098;DHT22;3077;50.922;6.584;2023-04-07T15:28:06;12.50;99.90
6098;DHT22;3077;50.922;6.584;2023-04-07T15:30:31;12.50;99.90
6098;DHT22;3077;50.922;6.584;2023-04-07T15:32:58;12.50;99.90
6098;DHT22;3077;50.922;6.584;2023-04-07T15:35:25;12.30;99.90
6098;DHT22;3077;50.922;6.584;2023-04-07T15:37:51;12.00;99.90
6098;DHT22;3077;50.922;6.584;2023-04-07T15:40:17;11.70;99.90
6098;DHT22;3077;50.922;6.584;2023-04-07T15:42:43;11.70;99.90
6098;DHT22;3077;50.922;6.584;2023-04-07T15:45:09;11.60;99.90
6098;DHT22;3077;50.922;6.584;2023-04-07T15:47:35;11.60;99.90
6098;DHT22;3077;50.922;6.584;2023-04-07T15:50:01;11.70;99.90
6098;DHT22;3077;50.922;6.584;2023-04-07T15:52:26;11.70;99.90
6098;DHT22;3077;50.922;6.584;2023-04-07T15:54:52;11.80;99.90
6098;DHT22;3077;50.922;6.584;2023-04-07T15:57:18;11.90;99.90
6098;DHT22;3077;50.922;6.584;2023-04-07T15:59:45;11.90;99.90
6098;DHT22;3077;50.922;6.584;2023-04-07T16:02:11;12.00;99.90
6098;DHT22;3077;50.922;6.584;2023-04-07T16:04:36;12.10;99.90
6098;DHT22;3077;50.922;6.584;2023-04-07T16:07:02;12.10;99.90
6098;DHT22;3077;50.922;6.584;2023-04-07T16:09:28;12.10;99.90
6098;DHT22;3077;50.922;6.584;2023-04-07T16:11:54;12.00;99.90
6098;DHT22;3077;50.922;6.584;2023-04-07T16:14:19;11.80;99.90
6098;DHT22;3077;50.922;6.584;2023-04-07T16:16:45;11.80;99.90
6098;DHT22;3077;50.922;6.584;2023-04-07T16:19:11;11.70;99.90
6098;DHT22;3077;50.922;6.584;2023-04-07T16:21:38;11.60;99.90
6098;DHT22;3077;50.922;6.584;2023-04-07T16:24:04;11.70;99.90
6098;DHT22;3077;50.922;6.584;2023-04-07T16:26:30;11.60;99.90
6098;DHT22;3077;50.922;6.584;2023-04-07T16:28:56;11.60;99.90
6098;DHT22;3077;50.922;6.584;2023-04-07T16:31:21;11.50;99.90
6098;DHT22;3077;50.922;6.584;2023-04-07T16:33:49;11.40;99.90
6098;DHT22;3077;50.922;6.584;2023-04-07T16:36:14;11.20;99.90
6098;DHT22;3077;50.922;6.584;2023-04-07T16:38:40;11.10;99.90
6098;DHT22;3077;50.922;6.584;2023-04-07T16:41:06;10.90;99.90
6098;DHT22;3077;50.922;6.584;2023-04-07T16:43:32;10.90;99.90
6098;DHT22;3077;50.922;6.584;2023-04-07T16:45:58;10.90;99.90
6098;DHT22;3077;50.922;6.584;2023-04-07T16:48:24;10.80;99.90
6098;DHT22;3077;50.922;6.584;2023-04-07T16:50:50;10.70;99.90
6098;DHT22;3077;50.922;6.584;2023-04-07T16:53:16;10.70;99.90
6098;DHT22;3077;50.922;6.584;2023-04-07T16:55:42;10.70;99.90
6098;DHT22;3077;50.922;6.584;2023-04-07T16:58:08;10.70;99.90
6098;DHT22;3077;50.922;6.584;2023-04-07T17:00:35;10.70;99.90
6098;DHT22;3077;50.922;6.584;2023-04-07T17:03:00;10.60;99.90
6098;DHT22;3077;50.922;6.584;2023-04-07T17:05:26;10.70;99.90
6098;DHT22;3077;50.922;6.584;2023-04-07T17:07:51;10.60;99.90
6098;DHT22;3077;50.922;6.584;2023-04-07T17:10:17;10.70;99.90
6098;DHT22;3077;50.922;6.584;2023-04-07T17:12:44;10.70;99.90
6098;DHT22;3077;50.922;6.584;2023-04-07T17:15:12;10.80;99.90
6098;DHT22;3077;50.922;6.584;2023-04-07T17:17:38;10.80;99.90
6098;DHT22;3077;50.922;6.584;2023-04-07T17:20:04;10.90;99.90
6098;DHT22;3077;50.922;6.584;2023-04-07T17:22:29;11.10;99.90
6098;DHT22;3077;50.922;6.584;2023-04-07T17:24:55;11.30;99.90
6098;DHT22;3077;50.922;6.584;2023-04-07T17:27:21;11.20;99.90
6098;DHT22;3077;50.922;6.584;2023-04-07T17:29:46;11.20;99.90
6098;DHT22;3077;50.922;6.584;2023-04-07T17:32:12;11.30;99.90
6098;DHT22;3077;50.922;6.584;2023-04-07T17:34:37;11.40;99.90
6098;DHT22;3077;50.922;6.584;2023-04-07T17:37:03;11.20;99.90
6098;DHT22;3077;50.922;6.584;2023-04-07T17:39:29;11.20;99.90
6098;DHT22;3077;50.922;6.584;2023-04-07T17:41:55;11.20;99.90
6098;DHT22;3077;50.922;6.584;2023-04-07T17:44:20;11.00;99.90
6098;DHT22;3077;50.922;6.584;2023-04-07T17:46:46;11.00;99.90
6098;DHT22;3077;50.922;6.584;2023-04-07T17:49:12;11.10;99.90
6098;DHT22;3077;50.922;6.584;2023-04-07T17:51:40;11.10;99.90
6098;DHT22;3077;50.922;6.584;2023-04-07T17:54:06;11.10;99.90
6098;DHT22;3077;50.922;6.584;2023-04-07T17:56:32;11.10;99.90